Time;durP1;ratioP1;P1;durP2;ratioP2;P2;SDS_P1;SDS_P2;PMS_P1;PMS_P2;Temp;Humidity;BMP_temperature;BMP_pressure;BME280_temperature;BME280_humidity;BME280_pressure;Samples;Min_cycle;Max_cycle;Signal;HPM_P1;HPM_P2
2022/01/08 00:02:11;;;;;;;0.30;0.30;;;17.30;56.10;;;;;;5084949;28;20119;-58
2022/01/08 00:04:37;;;;;;;0.57;0.40;;;17.30;56.00;;;;;;5084826;28;20032;-57
2022/01/08 00:07:03;;;;;;;0.30;0.25;;;17.30;55.90;;;;;;5085036;28;20028;-58
2022/01/08 00:09:29;;;;;;;0.47;0.30;;;17.30;55.70;;;;;;5084972;28;20133;-57
2022/01/08 00:11:55;;;;;;;0.30;0.30;;;17.30;55.60;;;;;;5084786;28;20084;-57
2022/01/08 00:14:23;;;;;;;0.60;0.50;;;17.20;55.60;;;;;;5097532;28;20020;-57
2022/01/08 00:16:49;;;;;;;0.57;0.40;;;17.20;55.90;;;;;;5105152;28;20028;-58
2022/01/08 00:19:15;;;;;;;0.43;0.28;;;17.30;56.10;;;;;;5104956;28;20031;-58
2022/01/08 00:21:41;;;;;;;0.73;0.50;;;17.30;56.10;;;;;;5104750;28;20040;-56
2022/01/08 00:24:07;;;;;;;0.50;0.30;;;17.30;56.00;;;;;;5104954;28;20040;-57
2022/01/08 00:26:33;;;;;;;0.50;0.40;;;17.30;55.70;;;;;;5104960;28;20028;-58
2022/01/08 00:29:00;;;;;;;0.40;0.40;;;17.30;55.60;;;;;;5103755;28;20059;-58
2022/01/08 00:31:26;;;;;;;0.60;0.30;;;17.30;55.70;;;;;;5104637;28;20032;-56
2022/01/08 00:33:53;;;;;;;0.60;0.40;;;17.20;55.70;;;;;;5104585;28;20058;-57
2022/01/08 00:36:19;;;;;;;0.90;0.40;;;17.20;56.10;;;;;;5104938;28;20066;-57
2022/01/08 00:38:46;;;;;;;0.90;0.40;;;17.30;56.10;;;;;;5104569;28;20039;-58
2022/01/08 00:41:12;;;;;;;0.50;0.40;;;17.30;56.10;;;;;;5104593;28;20689;-58
2022/01/08 00:43:38;;;;;;;0.77;0.40;;;17.30;56.10;;;;;;5104508;28;20024;-57
2022/01/08 00:46:04;;;;;;;0.40;0.40;;;17.30;55.80;;;;;;5104353;28;20024;-57
2022/01/08 00:48:30;;;;;;;0.60;0.40;;;17.30;55.70;;;;;;5104633;28;20028;-58
2022/01/08 00:50:56;;;;;;;1.02;0.40;;;17.20;55.70;;;;;;5104609;28;20032;-58
2022/01/08 00:53:22;;;;;;;0.50;0.40;;;17.20;56.00;;;;;;5103656;28;20091;-55
2022/01/08 00:55:48;;;;;;;0.95;0.60;;;17.20;56.10;;;;;;5103356;28;20590;-58
2022/01/08 00:58:15;;;;;;;0.40;0.40;;;17.30;56.10;;;;;;5098317;28;20135;-58
2022/01/08 01:00:44;;;;;;;0.70;0.50;;;17.30;56.10;;;;;;5083932;28;20029;-57
2022/01/08 01:03:10;;;;;;;0.93;0.47;;;17.30;55.90;;;;;;5083663;28;20034;-57
2022/01/08 01:05:36;;;;;;;1.10;0.50;;;17.30;55.70;;;;;;5099037;28;20088;-57
2022/01/08 01:08:02;;;;;;;0.70;0.50;;;17.20;55.60;;;;;;5103937;28;20086;-58
2022/01/08 01:10:28;;;;;;;0.73;0.50;;;17.20;55.70;;;;;;5104205;28;20725;-58
2022/01/08 01:12:54;;;;;;;0.82;0.50;;;17.20;56.10;;;;;;5103756;28;20030;-58
2022/01/08 01:15:20;;;;;;;0.60;0.57;;;17.30;56.20;;;;;;5104138;28;20028;-58
2022/01/08 01:17:47;;;;;;;0.43;0.32;;;17.30;56.10;;;;;;5103778;28;20028;-57
2022/01/08 01:20:15;;;;;;;1.20;0.50;;;17.30;56.00;;;;;;5104009;28;20075;-57
2022/01/08 01:23:30;;;;;;;0.95;0.55;;;17.30;55.80;;;;;;5103298;28;20040;-58
2022/01/08 01:25:34;;;;;;;0.40;0.40;;;17.30;55.70;;;;;;5099638;28;20036;-56
2022/01/08 01:41:29;;;;;;;0.82;0.57;;;17.20;55.70;;;;;;5091461;28;20043;-57
2022/01/08 01:49:19;;;;;;;0.93;0.60;;;17.20;56.20;;;;;;5103304;28;20118;-58
2022/01/08 01:51:45;;;;;;;0.70;0.57;;;17.30;56.20;;;;;;5103309;28;20032;-58
2022/01/08 01:54:11;;;;;;;1.17;0.60;;;17.30;56.10;;;;;;5102922;27;20024;-56
2022/01/08 01:56:38;;;;;;;1.50;0.93;;;17.30;55.80;;;;;;5103245;28;20051;-56
2022/01/08 01:59:04;;;;;;;0.73;0.60;;;17.20;55.80;;;;;;5105076;28;20039;-57
2022/01/08 02:01:30;;;;;;;1.25;0.50;;;17.10;55.80;;;;;;5082862;28;20040;-58
2022/01/08 02:03:56;;;;;;;0.50;0.40;;;17.10;56.70;;;;;;5082239;28;20029;-58
2022/01/08 02:06:23;;;;;;;0.77;0.60;;;17.20;56.30;;;;;;5082414;28;20058;-58
2022/01/08 02:08:49;;;;;;;0.68;0.50;;;17.30;56.20;;;;;;5092566;28;20054;-58
2022/01/08 02:11:18;;;;;;;0.70;0.43;;;17.30;56.10;;;;;;5103022;28;20020;-57
2022/01/08 02:13:44;;;;;;;0.65;0.52;;;17.30;55.80;;;;;;5102815;28;20790;-58
2022/01/08 02:16:16;;;;;;;0.95;0.55;;;17.20;55.80;;;;;;5102922;28;20028;-58
2022/01/08 02:18:46;;;;;;;0.70;0.60;;;17.10;55.80;;;;;;5102733;28;20032;-58
2022/01/08 02:21:12;;;;;;;0.88;0.60;;;17.10;56.10;;;;;;5101348;28;20043;-58
2022/01/08 02:23:40;;;;;;;0.60;0.60;;;17.20;56.10;;;;;;5102342;28;20062;-58
2022/01/08 02:26:06;;;;;;;;;;;17.30;56.10;;;;;;5101829;28;20746;-57
2022/01/08 02:28:32;;;;;;;0.63;0.50;;;17.30;56.10;;;;;;5094992;28;19981;-58
2022/01/08 02:30:58;;;;;;;1.03;0.80;;;17.30;55.80;;;;;;5082456;28;20029;-58
2022/01/08 02:33:27;;;;;;;0.60;0.60;;;17.20;55.70;;;;;;5082016;28;20283;-58
2022/01/08 02:35:54;;;;;;;0.77;0.60;;;17.10;55.70;;;;;;5080899;28;20024;-58
2022/01/08 02:38:20;;;;;;;0.93;0.57;;;17.20;56.10;;;;;;5082355;28;20033;-58
2022/01/08 02:41:07;;;;;;;0.75;0.68;;;17.20;56.10;;;;;;5117053;28;20032;-58
2022/01/08 02:43:40;;;;;;;0.73;0.60;;;17.30;56.10;;;;;;5102455;28;20044;-58
2022/01/08 02:46:06;;;;;;;1.30;0.70;;;17.30;56.10;;;;;;5102763;28;20024;-58
2022/01/08 02:48:32;;;;;;;1.00;0.80;;;17.30;55.70;;;;;;5102374;28;20551;-57
2022/01/08 02:50:58;;;;;;;1.15;0.55;;;17.20;55.70;;;;;;5102501;28;20040;-58
2022/01/08 02:53:24;;;;;;;0.80;0.57;;;17.10;55.70;;;;;;5102127;28;20093;-57
2022/01/08 02:55:51;;;;;;;1.20;0.57;;;17.20;56.10;;;;;;5102034;28;20028;-59
2022/01/08 02:58:18;;;;;;;1.50;0.50;;;17.30;56.10;;;;;;5096893;28;20036;-58
2022/01/08 03:00:44;;;;;;;0.65;0.50;;;17.30;56.00;;;;;;5082201;28;20059;-58
2022/01/08 03:03:10;;;;;;;0.60;0.57;;;17.30;56.10;;;;;;5090980;28;20103;-58
2022/01/08 03:05:36;;;;;;;0.60;0.50;;;17.30;55.80;;;;;;5100610;28;20111;-58
2022/01/08 03:08:02;;;;;;;2.58;0.68;;;17.20;55.80;;;;;;5102070;28;20108;-57
2022/01/08 03:10:28;;;;;;;0.95;0.70;;;17.10;55.80;;;;;;5102532;28;20028;-58
2022/01/08 03:12:54;;;;;;;1.30;0.70;;;17.10;56.10;;;;;;5082137;28;20088;-58
2022/01/08 03:15:22;;;;;;;0.70;0.60;;;17.20;56.20;;;;;;5092390;28;20055;-58
2022/01/08 03:17:47;;;;;;;;;;;17.30;56.10;;;;;;5102693;28;20031;-58
2022/01/08 03:20:14;;;;;;;0.70;0.60;;;17.30;56.20;;;;;;5106103;28;19907;-58
2022/01/08 03:22:45;;;;;;;0.93;0.52;;;17.30;55.80;;;;;;5106211;28;20024;-58
2022/01/08 03:25:11;;;;;;;0.93;0.63;;;17.20;55.80;;;;;;5105849;28;20040;-58
2022/01/08 03:27:37;;;;;;;1.02;0.60;;;17.20;55.80;;;;;;5105352;28;20111;-58
2022/01/08 03:30:05;;;;;;;0.55;0.30;;;17.10;56.10;;;;;;5106045;28;20055;-57
2022/01/08 03:32:31;;;;;;;1.20;0.70;;;17.20;56.20;;;;;;5105856;28;20500;-59
2022/01/08 03:34:57;;;;;;;1.00;0.60;;;17.30;56.10;;;;;;5105727;28;20127;-56
2022/01/08 03:37:23;;;;;;;0.90;0.60;;;17.30;56.10;;;;;;5105491;28;20047;-58
2022/01/08 03:39:49;;;;;;;0.57;0.55;;;17.30;55.90;;;;;;5105488;28;20125;-59
2022/01/08 03:42:15;;;;;;;0.70;0.50;;;17.20;55.80;;;;;;5105730;28;20032;-58
2022/01/08 03:44:41;;;;;;;0.90;0.80;;;17.20;55.80;;;;;;5105535;28;20024;-58
2022/01/08 03:49:52;;;;;;;1.05;0.68;;;17.20;56.30;;;;;;5105518;28;20104;-56
2022/01/08 03:52:18;;;;;;;0.95;0.60;;;17.20;56.20;;;;;;5105828;28;20032;-58
2022/01/08 03:54:45;;;;;;;0.50;0.50;;;17.30;56.10;;;;;;5105223;28;20051;-58
2022/01/08 03:57:11;;;;;;;0.80;0.70;;;17.30;56.10;;;;;;5105433;28;20028;-58
2022/01/08 03:59:37;;;;;;;1.10;0.60;;;17.20;55.80;;;;;;5088301;28;20024;-56
2022/01/08 04:02:03;;;;;;;0.90;0.80;;;17.10;55.80;;;;;;5085226;28;20044;-56
2022/01/08 04:04:29;;;;;;;0.73;0.70;;;17.10;56.10;;;;;;5102655;28;20053;-58
2022/01/08 04:06:55;;;;;;;1.10;0.60;;;17.20;56.20;;;;;;5105486;28;20070;-58
2022/01/08 04:09:22;;;;;;;0.75;0.55;;;17.30;56.20;;;;;;5104996;28;20044;-59
2022/01/08 04:11:48;;;;;;;0.65;0.57;;;17.30;56.20;;;;;;5105378;28;20028;-58
2022/01/08 04:14:16;;;;;;;0.87;0.70;;;17.30;56.10;;;;;;5104993;28;20024;-58
2022/01/08 04:16:46;;;;;;;1.00;0.70;;;17.30;55.90;;;;;;5105050;28;20032;-57
2022/01/08 04:19:12;;;;;;;0.75;0.55;;;17.20;55.80;;;;;;5105271;28;20028;-58
2022/01/08 04:24:24;;;;;;;1.48;0.57;;;17.20;56.30;;;;;;5105048;28;20096;-58
2022/01/08 04:26:50;;;;;;;0.65;0.60;;;17.20;56.20;;;;;;5104609;28;20105;-58
2022/01/08 04:29:16;;;;;;;1.00;0.60;;;17.30;56.20;;;;;;5103884;28;20028;-58
2022/01/08 04:31:42;;;;;;;0.93;0.70;;;17.30;56.10;;;;;;5104932;28;20054;-58
2022/01/08 04:34:08;;;;;;;1.02;0.73;;;17.30;55.90;;;;;;5104812;28;20021;-58
2022/01/08 04:36:34;;;;;;;1.73;0.88;;;17.20;55.80;;;;;;5104420;28;20046;-58
2022/01/08 04:39:00;;;;;;;0.55;0.55;;;17.10;55.90;;;;;;5104681;28;20104;-58
2022/01/08 04:41:27;;;;;;;0.80;0.60;;;17.10;56.20;;;;;;5104469;28;20047;-57
2022/01/08 04:43:53;;;;;;;0.82;0.70;;;17.20;56.20;;;;;;5104697;28;20481;-58
2022/01/08 04:46:19;;;;;;;0.50;0.50;;;17.30;56.20;;;;;;5104283;28;20056;-58
2022/01/08 04:48:45;;;;;;;0.70;0.60;;;17.30;56.20;;;;;;5104499;28;20043;-58
2022/01/08 04:51:11;;;;;;;1.15;0.85;;;17.30;56.10;;;;;;5104482;28;20774;-59
2022/01/08 04:53:37;;;;;;;0.50;0.50;;;17.20;55.80;;;;;;5104198;28;20020;-57
2022/01/08 04:56:03;;;;;;;0.68;0.60;;;17.10;55.90;;;;;;5104109;28;20604;-58
2022/01/08 04:58:29;;;;;;;1.17;0.75;;;17.10;56.10;;;;;;5094614;28;20052;-58
2022/01/08 05:00:56;;;;;;;1.25;0.77;;;17.20;56.30;;;;;;5084061;28;20036;-58
2022/01/08 05:03:22;;;;;;;0.65;0.60;;;17.30;56.20;;;;;;5084180;28;20040;-57
2022/01/08 05:05:48;;;;;;;0.63;0.60;;;17.30;56.10;;;;;;5083717;28;20024;-57
2022/01/08 05:08:14;;;;;;;0.95;0.68;;;17.30;55.90;;;;;;5083840;28;20060;-58
2022/01/08 05:10:41;;;;;;;0.75;0.60;;;17.20;55.80;;;;;;5084026;28;20417;-59
2022/01/08 05:13:07;;;;;;;0.57;0.50;;;17.10;55.90;;;;;;5101250;28;20027;-58
2022/01/08 05:15:33;;;;;;;1.00;0.80;;;17.20;56.30;;;;;;5103924;28;20028;-57
2022/01/08 05:18:00;;;;;;;0.82;0.70;;;17.20;56.20;;;;;;5103968;28;20056;-58
2022/01/08 05:20:31;;;;;;;1.05;0.80;;;17.30;56.10;;;;;;5103930;28;20058;-58
2022/01/08 05:23:00;;;;;;;0.60;0.50;;;17.30;56.10;;;;;;5103981;28;20052;-58
2022/01/08 05:25:27;;;;;;;1.27;0.68;;;17.30;55.80;;;;;;5103578;28;20123;-58
2022/01/08 05:27:53;;;;;;;0.85;0.80;;;17.20;56.40;;;;;;5099021;28;20036;-58
2022/01/08 05:30:20;;;;;;;0.68;0.57;;;17.10;55.90;;;;;;5098146;28;20031;-58
2022/01/08 05:32:46;;;;;;;0.82;0.60;;;17.20;56.20;;;;;;5103762;28;20035;-59
2022/01/08 05:35:12;;;;;;;0.47;0.45;;;17.20;56.10;;;;;;5103677;28;20029;-58
2022/01/08 05:37:38;;;;;;;1.17;0.55;;;17.30;56.10;;;;;;5103368;28;20078;-57
2022/01/08 05:40:05;;;;;;;0.70;0.60;;;17.30;56.10;;;;;;5103592;28;20024;-57
2022/01/08 05:42:31;;;;;;;1.08;0.60;;;17.30;55.90;;;;;;5102960;28;20036;-58
2022/01/08 05:44:57;;;;;;;1.05;0.70;;;17.20;55.80;;;;;;5103696;28;20119;-58
2022/01/08 05:47:27;;;;;;;0.63;0.60;;;17.10;55.90;;;;;;5103054;28;20028;-58
2022/01/08 05:49:53;;;;;;;0.82;0.73;;;17.20;56.20;;;;;;5103207;28;20039;-58
2022/01/08 05:52:19;;;;;;;0.88;0.63;;;17.20;56.20;;;;;;5103537;28;20028;-58
2022/01/08 05:54:45;;;;;;;0.82;0.68;;;17.30;56.10;;;;;;5103323;28;20024;-59
2022/01/08 05:57:11;;;;;;;1.23;0.70;;;17.30;56.10;;;;;;5102999;28;20138;-58
2022/01/08 05:59:38;;;;;;;0.80;0.50;;;17.30;55.90;;;;;;5102398;28;20028;-57
2022/01/08 06:02:05;;;;;;;0.60;0.52;;;17.20;55.80;;;;;;5103399;28;20062;-58
2022/01/08 06:04:31;;;;;;;0.88;0.63;;;17.20;56.00;;;;;;5102988;28;20028;-58
2022/01/08 06:06:57;;;;;;;1.52;0.80;;;17.20;56.20;;;;;;5102596;28;20031;-59
2022/01/08 06:09:24;;;;;;;1.30;0.88;;;17.20;56.20;;;;;;5102806;28;20605;-58
2022/01/08 06:11:50;;;;;;;0.65;0.65;;;17.30;56.10;;;;;;5103255;28;20039;-59
2022/01/08 06:14:16;;;;;;;1.27;0.87;;;17.30;56.10;;;;;;5103215;28;20024;-58
2022/01/08 06:16:42;;;;;;;1.05;0.70;;;17.30;55.90;;;;;;5084419;28;20058;-58
2022/01/08 06:19:10;;;;;;;0.60;0.60;;;17.20;55.80;;;;;;5082744;28;20142;-57
2022/01/08 06:21:36;;;;;;;;;;;17.10;55.80;;;;;;5083083;28;20044;-58
2022/01/08 06:24:03;;;;;;;1.40;0.80;;;17.10;56.10;;;;;;5082655;28;19911;-59
2022/01/08 06:26:29;;;;;;;0.95;0.80;;;17.20;56.20;;;;;;5082632;28;20025;-58
2022/01/08 06:28:55;;;;;;;1.17;0.85;;;17.30;56.10;;;;;;5083341;28;20093;-60
2022/01/08 06:31:22;;;;;;;0.60;0.60;;;17.30;56.10;;;;;;5082670;28;20040;-58
2022/01/08 06:33:48;;;;;;;1.65;0.82;;;17.30;55.90;;;;;;5082619;28;20032;-57
2022/01/08 06:36:17;;;;;;;1.10;0.80;;;17.20;55.80;;;;;;5082380;28;20024;-59
2022/01/08 06:38:43;;;;;;;1.05;0.70;;;17.10;55.90;;;;;;5082181;28;20571;-58
2022/01/08 06:41:10;;;;;;;1.05;0.70;;;17.10;56.10;;;;;;5082360;28;20048;-58
2022/01/08 06:43:36;;;;;;;0.73;0.55;;;17.20;56.20;;;;;;5082519;28;20024;-57
2022/01/08 06:46:02;;;;;;;0.95;0.73;;;17.30;56.10;;;;;;5098531;28;20017;-58
2022/01/08 06:48:28;;;;;;;0.90;0.80;;;17.30;56.10;;;;;;5102024;28;20106;-57
2022/01/08 06:50:54;;;;;;;0.80;0.80;;;17.30;56.00;;;;;;5102779;28;20054;-57
2022/01/08 06:53:20;;;;;;;1.10;0.90;;;17.30;55.90;;;;;;5103601;28;20536;-59
2022/01/08 06:55:47;;;;;;;0.98;0.80;;;17.20;55.80;;;;;;5106612;28;20031;-58
2022/01/08 06:58:13;;;;;;;1.30;0.73;;;17.10;56.00;;;;;;5105749;28;20028;-58
2022/01/08 07:00:39;;;;;;;1.50;1.00;;;17.20;56.20;;;;;;5102516;28;20102;-59
2022/01/08 07:03:09;;;;;;;1.33;0.70;;;17.20;56.10;;;;;;5086559;28;20733;-57
2022/01/08 07:05:36;;;;;;;0.85;0.63;;;17.30;56.10;;;;;;5086266;28;20032;-58
2022/01/08 07:08:03;;;;;;;1.00;0.90;;;17.30;56.00;;;;;;5085952;28;20129;-58
2022/01/08 07:10:29;;;;;;;1.17;0.77;;;17.20;55.70;;;;;;5086365;28;20031;-56
2022/01/08 07:12:55;;;;;;;0.77;0.77;;;17.20;55.90;;;;;;5086342;28;20177;-58
2022/01/08 07:15:21;;;;;;;1.40;0.93;;;17.20;56.20;;;;;;5093727;28;20531;-56
2022/01/08 07:17:47;;;;;;;1.63;0.95;;;17.20;56.10;;;;;;5106136;28;20135;-58
2022/01/08 07:20:14;;;;;;;1.02;0.90;;;17.30;56.10;;;;;;5106038;28;20039;-59
2022/01/08 07:22:40;;;;;;;0.85;0.80;;;17.30;56.10;;;;;;5106004;28;20036;-57
2022/01/08 07:25:07;;;;;;;1.17;0.88;;;17.30;55.90;;;;;;5106039;28;20049;-59
2022/01/08 07:27:33;;;;;;;1.13;0.80;;;17.20;55.80;;;;;;5105595;28;20031;-58
2022/01/08 07:30:04;;;;;;;1.38;1.05;;;17.10;55.90;;;;;;5106043;28;20036;-57
2022/01/08 07:32:30;;;;;;;0.80;0.60;;;17.20;56.20;;;;;;5106227;28;20890;-58
2022/01/08 07:34:57;;;;;;;0.90;0.70;;;17.20;56.20;;;;;;5105960;28;20062;-58
2022/01/08 07:37:23;;;;;;;0.73;0.65;;;17.30;56.10;;;;;;5121207;28;20030;-58
2022/01/08 07:39:50;;;;;;;1.35;0.80;;;17.30;56.10;;;;;;5105804;28;20085;-58
2022/01/08 07:42:16;;;;;;;0.88;0.70;;;17.30;56.00;;;;;;5106116;28;20560;-58
2022/01/08 07:44:42;;;;;;;1.80;0.70;;;17.20;55.80;;;;;;5105461;28;20024;-59
2022/01/08 07:47:08;;;;;;;1.00;0.70;;;17.10;55.90;;;;;;5105858;28;20024;-58
2022/01/08 07:49:34;;;;;;;1.40;0.63;;;17.10;56.20;;;;;;5105476;28;20033;-57
2022/01/08 07:52:00;;;;;;;0.98;0.88;;;17.20;56.20;;;;;;5105778;28;20039;-59
2022/01/08 07:54:27;;;;;;;1.00;0.70;;;17.30;56.10;;;;;;5105787;28;20024;-58
2022/01/08 07:56:53;;;;;;;1.10;1.00;;;17.30;56.10;;;;;;5105708;28;20024;-58
2022/01/08 07:59:19;;;;;;;0.90;0.80;;;17.30;56.00;;;;;;5090726;28;20044;-58
2022/01/08 08:01:45;;;;;;;1.23;0.90;;;17.30;55.80;;;;;;5085162;28;20046;-58
2022/01/08 08:04:11;;;;;;;1.63;1.00;;;17.20;55.90;;;;;;5084887;28;20032;-58
2022/01/08 08:06:49;;;;;;;1.25;0.80;;;17.10;56.10;;;;;;5092218;28;20048;-58
2022/01/08 08:09:16;;;;;;;1.30;0.80;;;17.20;56.20;;;;;;5104834;28;20052;-59
2022/01/08 08:11:42;;;;;;;0.98;0.65;;;17.30;56.20;;;;;;5105427;28;20024;-58
2022/01/08 08:14:08;;;;;;;1.10;0.70;;;17.30;56.10;;;;;;5105578;28;20060;-58
2022/01/08 08:16:34;;;;;;;0.70;0.55;;;17.30;56.00;;;;;;5105504;28;20024;-58
2022/01/08 08:19:01;;;;;;;2.15;0.98;;;17.30;56.00;;;;;;5104709;28;20032;-58
2022/01/08 08:21:27;;;;;;;1.08;0.93;;;17.20;55.90;;;;;;5105135;28;20035;-58
2022/01/08 08:23:53;;;;;;;1.05;0.70;;;17.10;56.10;;;;;;5105089;28;20035;-59
2022/01/08 08:26:19;;;;;;;0.98;0.70;;;17.20;56.20;;;;;;5105212;28;20051;-59
2022/01/08 08:28:45;;;;;;;0.82;0.70;;;17.30;56.20;;;;;;5104627;28;20040;-57
2022/01/08 08:31:11;;;;;;;1.38;0.90;;;17.30;56.10;;;;;;5105130;28;20054;-59
2022/01/08 08:33:38;;;;;;;1.25;0.80;;;17.30;56.10;;;;;;5105028;28;20028;-58
2022/01/08 08:36:05;;;;;;;1.30;0.93;;;17.30;55.90;;;;;;5104944;28;20111;-57
2022/01/08 08:38:31;;;;;;;0.80;0.75;;;17.20;55.90;;;;;;5104736;28;20062;-57
2022/01/08 08:40:57;;;;;;;1.15;0.80;;;17.10;55.90;;;;;;5104955;28;20495;-59
2022/01/08 08:43:23;;;;;;;0.70;0.60;;;17.20;56.20;;;;;;5104831;28;20032;-58
2022/01/08 08:45:50;;;;;;;0.88;0.80;;;17.20;56.10;;;;;;5104699;28;20087;-58
2022/01/08 08:48:16;;;;;;;1.38;0.90;;;17.30;56.10;;;;;;5104626;28;20032;-58
2022/01/08 08:50:43;;;;;;;0.93;0.80;;;17.30;56.00;;;;;;5104370;28;20032;-58
2022/01/08 08:53:09;;;;;;;1.08;0.68;;;17.30;55.80;;;;;;5104602;28;20265;-57
2022/01/08 08:55:35;;;;;;;1.75;0.80;;;17.20;55.80;;;;;;5103889;28;20020;-58
2022/01/08 08:58:02;;;;;;;1.23;0.82;;;17.10;56.00;;;;;;5100815;28;20028;-57
2022/01/08 09:00:28;;;;;;;1.25;0.90;;;17.20;56.10;;;;;;5086427;28;20041;-58
2022/01/08 09:02:54;;;;;;;1.40;0.77;;;17.30;56.10;;;;;;5104039;28;20063;-58
2022/01/08 09:05:20;;;;;;;1.20;0.80;;;17.30;56.00;;;;;;5104102;28;20025;-59
2022/01/08 09:07:46;;;;;;;0.80;0.63;;;17.30;55.80;;;;;;5104242;28;20035;-57
2022/01/08 09:10:12;;;;;;;0.90;0.70;;;17.30;55.80;;;;;;5103859;28;20097;-58
2022/01/08 09:12:39;;;;;;;1.42;0.75;;;17.20;55.80;;;;;;5104316;28;20133;-58
2022/01/08 09:15:07;;;;;;;0.95;0.77;;;17.10;56.00;;;;;;5103893;28;20028;-57
2022/01/08 09:17:33;;;;;;;;;;;17.20;56.10;;;;;;5103739;28;20029;-58
2022/01/08 09:19:59;;;;;;;1.08;0.68;;;17.30;56.00;;;;;;5104214;28;19908;-58
2022/01/08 09:22:25;;;;;;;1.40;0.93;;;17.30;55.90;;;;;;5103814;28;20028;-58
2022/01/08 09:24:53;;;;;;;1.23;0.82;;;17.30;55.90;;;;;;5103625;28;20032;-58
2022/01/08 09:27:19;;;;;;;1.20;0.80;;;17.30;55.70;;;;;;5104049;28;20028;-59
2022/01/08 09:29:45;;;;;;;1.00;0.80;;;17.20;55.70;;;;;;5103486;28;20028;-58
2022/01/08 09:32:12;;;;;;;0.98;0.88;;;17.10;55.90;;;;;;5103749;28;20036;-58
2022/01/08 09:34:38;;;;;;;1.25;0.90;;;17.20;56.10;;;;;;5103638;28;20031;-58
2022/01/08 09:37:05;;;;;;;1.08;0.77;;;17.20;56.00;;;;;;5101976;28;20438;-58
2022/01/08 09:39:31;;;;;;;0.90;0.75;;;17.30;55.90;;;;;;5103589;28;20492;-59
2022/01/08 09:41:57;;;;;;;1.42;1.00;;;17.30;55.90;;;;;;5103170;28;20049;-59
2022/01/08 09:44:23;;;;;;;1.20;0.80;;;17.30;55.70;;;;;;5103512;28;20027;-58
2022/01/08 09:46:50;;;;;;;1.20;0.87;;;17.20;55.70;;;;;;5103169;28;20027;-59
2022/01/08 09:49:16;;;;;;;2.80;1.00;;;17.10;55.90;;;;;;5103316;28;20032;-59
2022/01/08 09:51:42;;;;;;;1.20;0.90;;;17.20;56.00;;;;;;5103435;28;20091;-58
2022/01/08 09:54:08;;;;;;;1.27;0.90;;;17.30;55.90;;;;;;5103571;28;20080;-58
2022/01/08 09:56:34;;;;;;;0.85;0.65;;;17.30;55.90;;;;;;5103191;28;20046;-57
2022/01/08 09:59:01;;;;;;;1.00;0.90;;;17.30;55.80;;;;;;5102722;28;20050;-58
2022/01/08 10:01:31;;;;;;;1.17;0.80;;;17.30;55.70;;;;;;5102778;28;20091;-58
2022/01/08 10:04:01;;;;;;;1.10;0.90;;;17.20;55.70;;;;;;5103284;28;20272;-59
2022/01/08 10:06:30;;;;;;;0.90;0.77;;;17.10;55.90;;;;;;5103094;28;20085;-59
2022/01/08 10:08:56;;;;;;;1.17;0.85;;;17.20;56.00;;;;;;5102766;28;20056;-59
2022/01/08 10:11:23;;;;;;;0.70;0.70;;;17.30;55.90;;;;;;5103059;28;20051;-58
2022/01/08 10:13:58;;;;;;;0.73;0.70;;;17.30;55.90;;;;;;5103024;28;20024;-58
2022/01/08 10:19:24;;;;;;;1.20;0.82;;;17.30;55.70;;;;;;5102889;28;20034;-57
2022/01/08 10:21:51;;;;;;;1.38;0.90;;;17.10;55.70;;;;;;5102864;28;20024;-58
2022/01/08 10:24:26;;;;;;;1.45;0.88;;;17.20;56.00;;;;;;5103070;28;20563;-58
2022/01/08 10:26:53;;;;;;;1.27;0.80;;;17.20;55.90;;;;;;5102784;28;20058;-58
2022/01/08 10:29:20;;;;;;;0.98;0.73;;;17.30;56.40;;;;;;5087623;28;20033;-58
2022/01/08 10:31:48;;;;;;;1.10;0.90;;;17.30;55.70;;;;;;5082612;28;20020;-58
2022/01/08 10:34:18;;;;;;;0.98;0.75;;;17.30;55.60;;;;;;5082431;28;20553;-57
2022/01/08 10:36:47;;;;;;;1.10;1.00;;;17.20;55.60;;;;;;5082476;28;20032;-57
2022/01/08 10:39:34;;;;;;;1.23;1.00;;;17.10;55.70;;;;;;5082607;28;20028;-59
2022/01/08 10:42:21;;;;;;;1.60;1.00;;;17.20;55.90;;;;;;5082542;28;20045;-58
2022/01/08 10:44:49;;;;;;;1.10;1.00;;;17.30;55.80;;;;;;5088021;28;20700;-58
2022/01/08 10:47:17;;;;;;;1.60;0.80;;;17.30;55.80;;;;;;5102452;28;20063;-58
2022/01/08 10:49:44;;;;;;;0.85;0.80;;;17.30;55.60;;;;;;5102458;28;20048;-58
2022/01/08 10:52:11;;;;;;;1.02;0.80;;;17.30;55.50;;;;;;5102577;28;20032;-58
2022/01/08 10:54:39;;;;;;;1.10;0.75;;;17.20;55.60;;;;;;5102303;28;20101;-58
2022/01/08 10:57:07;;;;;;;1.65;0.90;;;17.10;55.80;;;;;;5102494;28;20025;-58
2022/01/08 10:59:34;;;;;;;1.65;0.93;;;17.20;55.80;;;;;;5102304;28;20119;-58
2022/01/08 11:02:10;;;;;;;1.95;0.90;;;17.30;55.70;;;;;;5102168;28;20039;-59
2022/01/08 11:04:45;;;;;;;0.98;0.80;;;17.30;55.70;;;;;;5102485;28;20028;-58
2022/01/08 11:07:31;;;;;;;1.10;0.80;;;17.30;55.60;;;;;;5100858;28;20028;-58
2022/01/08 11:10:02;;;;;;;1.00;0.75;;;17.20;55.40;;;;;;5102304;28;20451;-59
2022/01/08 11:12:34;;;;;;;1.30;0.88;;;17.10;55.50;;;;;;5102214;28;20119;-58
2022/01/08 11:15:23;;;;;;;1.30;0.80;;;17.10;55.80;;;;;;5102419;28;20024;-58
2022/01/08 11:17:55;;;;;;;1.23;0.90;;;17.20;55.70;;;;;;5102034;28;20044;-58
2022/01/08 11:20:22;;;;;;;1.13;0.90;;;17.30;55.70;;;;;;5102144;28;20036;-59
2022/01/08 11:22:57;;;;;;;0.88;0.70;;;17.30;55.70;;;;;;5102037;28;20095;-59
2022/01/08 11:25:33;;;;;;;1.08;0.77;;;17.30;55.50;;;;;;5102476;28;20028;-58
2022/01/08 11:28:01;;;;;;;1.27;1.00;;;17.20;55.40;;;;;;5101278;28;20020;-58
2022/01/08 11:30:27;;;;;;;;;;;17.10;55.50;;;;;;5102883;28;20035;-58
2022/01/08 11:32:57;;;;;;;1.20;0.93;;;17.10;55.70;;;;;;5102095;28;19908;-58
2022/01/08 11:35:24;;;;;;;1.42;0.73;;;17.20;55.70;;;;;;5102105;28;20035;-58
2022/01/08 11:37:51;;;;;;;1.00;0.73;;;17.30;55.40;;;;;;5101995;28;20028;-58
2022/01/08 11:40:21;;;;;;;1.13;0.63;;;17.30;55.50;;;;;;5104488;28;20035;-58
2022/01/08 11:42:47;;;;;;;1.25;0.90;;;17.30;55.20;;;;;;5105651;28;20036;-57
2022/01/08 11:45:16;;;;;;;1.00;0.90;;;17.20;55.10;;;;;;5105653;28;20088;-57
2022/01/08 11:47:46;;;;;;;0.73;0.68;;;17.10;55.20;;;;;;5105629;28;20032;-58
2022/01/08 11:50:12;;;;;;;1.00;0.80;;;17.20;55.50;;;;;;5105519;28;20016;-58
2022/01/08 11:52:39;;;;;;;0.90;0.80;;;17.20;55.30;;;;;;5105770;28;20441;-58
2022/01/08 11:55:05;;;;;;;0.90;0.73;;;17.30;55.20;;;;;;5105933;28;20024;-58
2022/01/08 11:57:32;;;;;;;0.77;0.77;;;17.30;55.20;;;;;;5105314;28;20028;-61
2022/01/08 11:59:59;;;;;;;1.17;0.87;;;17.30;55.10;;;;;;5104413;28;20053;-57
2022/01/08 12:02:35;;;;;;;1.02;0.80;;;17.20;55.00;;;;;;5105459;28;20292;-58
2022/01/08 12:05:01;;;;;;;2.08;0.77;;;17.20;55.30;;;;;;5105334;28;20040;-58
2022/01/08 12:07:35;;;;;;;1.00;0.80;;;17.20;55.20;;;;;;5105226;28;20045;-58
2022/01/08 12:10:09;;;;;;;0.95;0.80;;;17.30;55.00;;;;;;5105275;28;20492;-58
2022/01/08 12:12:52;;;;;;;1.67;0.80;;;17.30;55.10;;;;;;5105514;28;20039;-57
2022/01/08 12:15:42;;;;;;;1.00;0.70;;;17.30;54.80;;;;;;5105204;28;20036;-58
2022/01/08 12:18:20;;;;;;;1.75;0.82;;;17.20;54.80;;;;;;5098439;28;20092;-58
2022/01/08 12:20:47;;;;;;;;;;;17.20;55.10;;;;;;5105483;28;20050;-58
2022/01/08 12:23:26;;;;;;;1.27;0.90;;;17.20;55.00;;;;;;5105058;28;19916;-59
2022/01/08 12:25:53;;;;;;;0.95;0.85;;;17.30;54.90;;;;;;5105138;28;20107;-58
2022/01/08 12:28:46;;;;;;;0.88;0.70;;;17.30;55.00;;;;;;5104226;28;20410;-58
2022/01/08 12:31:42;;;;;;;1.30;0.90;;;17.30;54.80;;;;;;5105198;28;20024;-58
2022/01/08 12:34:31;;;;;;;0.63;0.60;;;17.20;54.70;;;;;;5104782;28;20099;-58
2022/01/08 12:36:58;;;;;;;1.10;0.88;;;17.10;54.80;;;;;;5105102;28;20106;-58
2022/01/08 12:39:53;;;;;;;0.95;0.80;;;17.20;55.10;;;;;;5104736;28;20047;-58
2022/01/08 12:42:20;;;;;;;1.20;0.70;;;17.30;54.80;;;;;;5100007;28;20036;-59
2022/01/08 12:45:07;;;;;;;0.88;0.80;;;17.30;54.70;;;;;;5104397;28;20027;-58
2022/01/08 12:47:54;;;;;;;1.27;0.88;;;17.30;54.80;;;;;;5104220;28;20035;-58
2022/01/08 12:50:37;;;;;;;1.50;1.20;;;17.30;54.50;;;;;;5103762;28;20051;-58
2022/01/08 12:53:06;;;;;;;1.10;0.80;;;17.20;54.50;;;;;;5104120;28;20568;-58
2022/01/08 12:55:40;;;;;;;1.58;1.10;;;17.20;54.90;;;;;;5104514;28;20805;-57
2022/01/08 12:58:17;;;;;;;1.50;0.73;;;17.20;54.80;;;;;;5100427;28;20024;-58
2022/01/08 13:01:16;;;;;;;1.00;0.80;;;17.30;54.60;;;;;;5084179;28;20047;-57
2022/01/08 13:03:43;;;;;;;0.75;0.70;;;17.30;54.60;;;;;;5041287;28;20041;-57
2022/01/08 13:06:13;;;;;;;1.38;0.98;;;17.30;54.50;;;;;;5056824;28;20028;-57
2022/01/08 13:08:43;;;;;;;0.90;0.88;;;17.30;54.30;;;;;;5060920;28;20717;-57
2022/01/08 13:11:11;;;;;;;0.88;0.70;;;17.20;54.40;;;;;;5061215;28;20129;-57
2022/01/08 13:13:46;;;;;;;0.77;0.70;;;17.20;54.70;;;;;;5061096;28;20040;-58
2022/01/08 13:16:16;;;;;;;0.80;0.80;;;17.20;54.60;;;;;;5060960;28;20075;-58
2022/01/08 13:18:48;;;;;;;0.77;0.70;;;17.30;54.50;;;;;;5060782;28;20059;-57
2022/01/08 13:21:14;;;;;;;1.55;0.98;;;17.30;54.40;;;;;;5060738;28;20062;-58